createdAt,value
2018-09-26T00:00:17.257Z,7.47
2018-09-26T00:02:49.321Z,7.43
2018-09-26T00:05:19.748Z,7.41
2018-09-26T00:07:49.252Z,7.48
2018-09-26T00:10:18.987Z,7.36
2018-09-26T00:12:48.383Z,7.38
2018-09-26T00:15:17.968Z,7.36
2018-09-26T00:17:47.738Z,7.38
2018-09-26T00:20:17.128Z,7.31
2018-09-26T00:22:46.790Z,7.29
2018-09-26T00:25:16.240Z,7.20
2018-09-26T00:27:45.795Z,7.15
2018-09-26T00:30:15.372Z,7.21
2018-09-26T00:32:45.132Z,7.14
2018-09-26T00:35:14.824Z,7.02
2018-09-26T00:37:44.532Z,6.96
2018-09-26T00:40:14.064Z,7.05
2018-09-26T00:42:43.544Z,7.07
2018-09-26T00:45:13.155Z,7.11
2018-09-26T00:47:42.921Z,6.89
2018-09-26T00:50:12.565Z,6.79
2018-09-26T00:52:41.981Z,6.99
2018-09-26T00:55:11.478Z,6.96
2018-09-26T00:57:41.008Z,6.92
2018-09-26T01:00:10.682Z,6.92
2018-09-26T01:02:40.363Z,6.92
2018-09-26T01:05:10.219Z,6.92
2018-09-26T01:07:39.747Z,6.86
2018-09-26T01:10:09.427Z,6.90
2018-09-26T01:12:39.125Z,6.83
2018-09-26T01:15:08.566Z,6.81
2018-09-26T01:17:38.340Z,6.76
2018-09-26T01:20:08.255Z,6.72
2018-09-26T01:22:37.714Z,6.71
2018-09-26T01:25:07.249Z,6.61
2018-09-26T01:27:36.728Z,6.52
2018-09-26T01:30:07.295Z,6.54
2018-09-26T01:32:37.001Z,6.61
2018-09-26T01:35:06.541Z,6.56
2018-09-26T01:37:36.039Z,6.55
2018-09-26T01:40:05.516Z,6.58
2018-09-26T01:42:35.120Z,6.58
2018-09-26T01:45:05.239Z,6.60
2018-09-26T01:47:34.891Z,6.60
2018-09-26T01:50:04.459Z,6.58
2018-09-26T01:52:34.058Z,6.55
2018-09-26T01:55:03.589Z,6.45
2018-09-26T01:57:33.272Z,6.38
2018-09-26T02:00:03.083Z,6.43
2018-09-26T02:02:32.757Z,6.41
2018-09-26T02:05:02.300Z,6.40
2018-09-26T02:07:31.915Z,6.43
2018-09-26T02:10:01.625Z,6.30
2018-09-26T02:12:31.104Z,6.42
2018-09-26T02:15:00.926Z,6.48
2018-09-26T02:17:30.377Z,6.48
2018-09-26T02:20:00.055Z,6.47
2018-09-26T02:22:29.747Z,6.42
2018-09-26T02:24:59.296Z,6.40
2018-09-26T02:27:28.966Z,6.30
2018-09-26T02:29:58.669Z,6.28
2018-09-26T02:32:28.109Z,6.24
2018-09-26T02:34:57.677Z,6.29
2018-09-26T02:37:27.288Z,6.29
2018-09-26T02:39:56.768Z,6.29
2018-09-26T02:42:26.260Z,6.26
2018-09-26T02:44:55.796Z,6.28
2018-09-26T02:47:25.383Z,6.32
2018-09-26T02:49:55.111Z,6.33
2018-09-26T02:52:24.820Z,6.40
2018-09-26T02:54:54.430Z,6.44
2018-09-26T02:57:24.082Z,6.44
2018-09-26T02:59:53.642Z,6.30
2018-09-26T03:02:23.153Z,6.32
2018-09-26T03:04:52.917Z,6.39
2018-09-26T03:07:22.572Z,6.42
2018-09-26T03:09:52.132Z,6.41
2018-09-26T03:12:21.539Z,6.49
2018-09-26T03:14:50.988Z,6.51
2018-09-26T03:17:20.404Z,6.26
2018-09-26T03:19:49.820Z,6.29
2018-09-26T03:22:19.382Z,6.28
2018-09-26T03:24:48.855Z,6.39
2018-09-26T03:27:18.509Z,6.35
2018-09-26T03:29:48.102Z,6.39
2018-09-26T03:32:17.565Z,6.37
2018-09-26T03:34:47.209Z,6.33
2018-09-26T03:37:16.636Z,6.33
2018-09-26T03:39:46.324Z,6.38
2018-09-26T03:42:15.720Z,6.33
2018-09-26T03:44:45.432Z,6.25
2018-09-26T03:47:15.144Z,6.16
2018-09-26T03:49:44.746Z,6.16
2018-09-26T03:52:14.257Z,6.28
2018-09-26T03:54:43.740Z,6.31
2018-09-26T03:57:13.364Z,6.30
2018-09-26T03:59:43.075Z,6.42
2018-09-26T04:02:12.537Z,6.43
2018-09-26T04:04:42.021Z,6.44
2018-09-26T04:07:11.786Z,6.35
2018-09-26T04:09:41.389Z,6.30
2018-09-26T04:12:10.760Z,6.25
2018-09-26T04:14:40.224Z,6.33
2018-09-26T04:17:09.906Z,6.21
2018-09-26T04:19:39.380Z,6.35
2018-09-26T04:22:09.020Z,6.39
2018-09-26T04:24:38.936Z,6.35
2018-09-26T04:27:08.454Z,6.33
2018-09-26T04:29:37.905Z,6.33
2018-09-26T04:32:07.406Z,6.30
2018-09-26T04:34:37.579Z,6.34
2018-09-26T04:37:07.506Z,6.41
2018-09-26T04:39:36.932Z,6.42
2018-09-26T04:42:06.400Z,6.47
2018-09-26T04:44:35.955Z,6.48
2018-09-26T04:47:05.695Z,6.45
2018-09-26T04:49:35.610Z,6.42
2018-09-26T04:52:05.088Z,6.47
2018-09-26T04:54:34.606Z,6.43
2018-09-26T04:57:04.048Z,6.49
2018-09-26T04:59:33.504Z,6.50
2018-09-26T05:02:02.943Z,6.49
2018-09-26T05:04:32.397Z,6.48
2018-09-26T05:07:01.905Z,6.47
2018-09-26T05:09:31.320Z,6.54
2018-09-26T05:12:01.050Z,6.61
2018-09-26T05:14:30.557Z,6.60
2018-09-26T05:17:00.032Z,6.59
2018-09-26T05:19:29.473Z,6.64
2018-09-26T05:21:59.163Z,6.74
2018-09-26T05:24:28.561Z,6.77
2018-09-26T05:26:58.130Z,6.77
2018-09-26T05:29:28.092Z,6.80
2018-09-26T05:31:58.000Z,6.86
2018-09-26T05:34:28.567Z,6.96
2018-09-26T05:36:58.307Z,7.03
2018-09-26T05:39:27.748Z,7.01
2018-09-26T05:41:57.328Z,7.09
2018-09-26T05:44:27.056Z,7.14
2018-09-26T05:46:56.772Z,7.11
2018-09-26T05:49:26.280Z,7.22
2018-09-26T05:51:55.877Z,7.27
2018-09-26T05:54:25.534Z,7.29
2018-09-26T05:56:55.192Z,7.32
2018-09-26T05:59:24.900Z,7.27
2018-09-26T06:01:54.337Z,7.36
2018-09-26T06:04:23.875Z,7.36
2018-09-26T06:06:53.515Z,7.44
2018-09-26T06:09:23.223Z,7.43
2018-09-26T06:11:52.630Z,7.50
2018-09-26T06:14:22.290Z,7.43
2018-09-26T06:16:51.707Z,7.32
2018-09-26T06:19:21.246Z,7.35
2018-09-26T06:21:50.805Z,7.58
2018-09-26T06:24:20.351Z,7.67
2018-09-26T06:26:49.777Z,7.80
2018-09-26T06:29:19.556Z,7.73
2018-09-26T06:31:48.979Z,7.88
2018-09-26T06:34:18.584Z,7.94
2018-09-26T06:36:48.246Z,8.18
2018-09-26T06:39:17.695Z,8.24
2018-09-26T06:41:47.397Z,8.38
2018-09-26T06:44:16.834Z,8.41
2018-09-26T06:46:46.311Z,8.41
2018-09-26T06:49:15.874Z,8.68
2018-09-26T06:51:45.720Z,8.64
2018-09-26T06:54:15.153Z,8.70
2018-09-26T06:56:44.770Z,8.84
2018-09-26T06:59:14.200Z,8.70
2018-09-26T07:01:43.683Z,8.93
2018-09-26T07:04:13.243Z,9.36
2018-09-26T07:06:42.868Z,9.32
2018-09-26T07:09:12.600Z,9.40
2018-09-26T07:11:42.214Z,9.82
2018-09-26T07:14:11.972Z,9.80
2018-09-26T07:16:41.581Z,9.89
2018-09-26T07:19:11.188Z,10.77
2018-09-26T07:21:40.658Z,11.04
2018-09-26T07:24:10.073Z,10.76
2018-09-26T07:26:39.756Z,10.90
2018-09-26T07:29:09.213Z,10.78
2018-09-26T07:31:38.884Z,11.00
2018-09-26T07:34:08.627Z,11.11
2018-09-26T07:36:38.651Z,11.19
2018-09-26T07:39:11.024Z,11.08
2018-09-26T07:41:40.511Z,11.35
2018-09-26T07:44:09.953Z,11.37
2018-09-26T07:46:39.470Z,11.72
2018-09-26T07:49:08.977Z,11.66
2018-09-26T07:51:38.517Z,11.98
2018-09-26T07:54:08.044Z,11.93
2018-09-26T07:56:37.842Z,11.96
2018-09-26T07:59:07.749Z,12.33
2018-09-26T08:01:37.502Z,12.37
2018-09-26T08:04:07.070Z,12.47
2018-09-26T08:06:36.480Z,12.58
2018-09-26T08:09:08.057Z,12.77
2018-09-26T08:11:37.970Z,12.72
2018-09-26T08:14:07.938Z,12.95
2018-09-26T08:16:37.800Z,13.08
2018-09-26T08:19:07.474Z,13.03
2018-09-26T08:21:36.967Z,13.03
2018-09-26T08:24:06.696Z,13.21
2018-09-26T08:26:36.209Z,13.28
2018-09-26T08:29:05.677Z,13.34
2018-09-26T08:31:35.615Z,13.35
2018-09-26T08:34:05.319Z,13.69
2018-09-26T08:36:34.934Z,14.12
2018-09-26T08:39:05.969Z,13.84
2018-09-26T08:41:35.380Z,14.06
2018-09-26T08:44:05.123Z,14.14
2018-09-26T08:46:34.785Z,14.23
2018-09-26T08:49:04.378Z,14.02
2018-09-26T08:51:33.932Z,14.26
2018-09-26T08:54:03.421Z,13.90
2018-09-26T08:56:32.866Z,14.10
2018-09-26T08:59:02.463Z,14.08
2018-09-26T09:01:37.337Z,14.08
2018-09-26T09:04:07.047Z,14.12
2018-09-26T09:06:36.517Z,14.13
2018-09-26T09:09:07.537Z,13.13
2018-09-26T09:11:37.256Z,13.99
2018-09-26T09:14:06.942Z,13.96
2018-09-26T09:16:36.719Z,13.97
2018-09-26T09:19:06.188Z,14.05
2018-09-26T09:21:35.832Z,14.49
2018-09-26T09:24:05.537Z,14.37
2018-09-26T09:26:35.246Z,14.35
2018-09-26T09:29:05.008Z,14.38
2018-09-26T09:31:34.452Z,14.53
2018-09-26T09:34:04.143Z,14.67
2018-09-26T09:36:33.550Z,14.70
2018-09-26T09:39:03.704Z,14.92
2018-09-26T09:41:33.244Z,15.28
2018-09-26T09:44:02.916Z,15.49
2018-09-26T09:46:32.728Z,15.58
2018-09-26T09:49:02.527Z,15.98
2018-09-26T09:51:31.931Z,15.90
2018-09-26T09:54:01.484Z,16.21
2018-09-26T09:56:31.163Z,16.37
2018-09-26T09:59:00.922Z,16.52
2018-09-26T10:01:30.762Z,16.35
2018-09-26T10:04:01.045Z,16.90
2018-09-26T10:06:30.798Z,17.00
2018-09-26T10:09:00.710Z,17.02
2018-09-26T10:11:30.418Z,17.34
2018-09-26T10:14:00.235Z,17.65
2018-09-26T10:16:29.704Z,17.53
2018-09-26T10:18:59.441Z,17.54
2018-09-26T10:21:28.946Z,17.84
2018-09-26T10:23:58.872Z,17.79
2018-09-26T10:26:28.448Z,17.81
2018-09-26T10:28:58.177Z,17.52
2018-09-26T10:31:27.782Z,17.46
2018-09-26T10:33:57.388Z,17.50
2018-09-26T10:36:26.944Z,17.50
2018-09-26T10:38:56.602Z,17.70
2018-09-26T10:41:26.466Z,17.85
2018-09-26T10:43:56.024Z,17.91
2018-09-26T10:46:25.527Z,17.81
2018-09-26T10:48:55.194Z,18.22
2018-09-26T10:51:24.737Z,18.54
2018-09-26T10:53:54.552Z,18.59
2018-09-26T10:56:24.349Z,18.43
2018-09-26T10:58:53.998Z,18.21
2018-09-26T11:01:23.687Z,18.44
2018-09-26T11:03:53.392Z,18.67
2018-09-26T11:06:22.995Z,18.65
2018-09-26T11:08:52.705Z,18.80
2018-09-26T11:11:22.412Z,18.92
2018-09-26T11:13:52.118Z,18.94
2018-09-26T11:16:21.885Z,18.53
2018-09-26T11:18:51.559Z,18.43
2018-09-26T11:21:21.577Z,18.43
2018-09-26T11:23:51.261Z,18.37
2018-09-26T11:26:20.759Z,18.68
2018-09-26T11:28:50.313Z,18.74
2018-09-26T11:31:19.688Z,18.64
2018-09-26T11:33:49.439Z,18.45
2018-09-26T11:36:18.954Z,18.12
2018-09-26T11:38:48.495Z,18.58
2018-09-26T11:41:18.128Z,19.00
2018-09-26T11:43:48.118Z,18.72
2018-09-26T11:46:17.537Z,18.50
2018-09-26T11:48:46.972Z,18.68
2018-09-26T11:51:16.831Z,19.03
2018-09-26T11:53:46.616Z,19.14
2018-09-26T11:56:16.484Z,18.65
2018-09-26T11:58:46.063Z,18.06
2018-09-26T12:01:16.339Z,17.72
2018-09-26T12:03:45.897Z,18.06
2018-09-26T12:06:15.512Z,18.17
2018-09-26T12:08:45.124Z,18.17
2018-09-26T12:11:14.615Z,18.27
2018-09-26T12:13:44.253Z,18.62
2018-09-26T12:16:13.727Z,18.77
2018-09-26T12:18:43.326Z,18.99
2018-09-26T12:21:12.930Z,19.01
2018-09-26T12:23:42.512Z,18.98
2018-09-26T12:26:12.144Z,18.60
2018-09-26T12:28:41.649Z,19.26
2018-09-26T12:31:11.124Z,19.34
2018-09-26T12:33:40.895Z,19.31
2018-09-26T12:36:10.415Z,19.07
2018-09-26T12:38:40.033Z,18.87
2018-09-26T12:41:09.680Z,18.69
2018-09-26T12:43:39.140Z,19.03
2018-09-26T12:46:08.721Z,18.92
2018-09-26T12:48:38.360Z,19.11
2018-09-26T12:51:07.815Z,19.00
2018-09-26T12:53:37.552Z,19.51
2018-09-26T12:56:06.892Z,19.89
2018-09-26T12:58:36.519Z,19.49
2018-09-26T13:01:06.085Z,19.68
2018-09-26T13:03:35.839Z,19.76
2018-09-26T13:06:05.568Z,19.52
2018-09-26T13:08:35.252Z,19.49
2018-09-26T13:11:04.660Z,19.86
2018-09-26T13:13:34.260Z,19.72
2018-09-26T13:16:04.193Z,19.83
2018-09-26T13:18:33.790Z,19.19
2018-09-26T13:21:03.389Z,19.26
2018-09-26T13:23:33.052Z,19.32
2018-09-26T13:26:02.609Z,19.38
2018-09-26T13:28:32.309Z,19.37
2018-09-26T13:31:01.977Z,19.60
2018-09-26T13:33:31.772Z,19.64
2018-09-26T13:36:01.343Z,19.45
2018-09-26T13:38:30.925Z,19.46
2018-09-26T13:41:00.452Z,19.48
2018-09-26T13:43:30.258Z,19.63
2018-09-26T13:45:59.902Z,19.61
2018-09-26T13:48:29.323Z,19.92
2018-09-26T13:50:58.987Z,19.80
2018-09-26T13:53:28.459Z,19.83
2018-09-26T13:55:57.990Z,19.90
2018-09-26T13:58:27.592Z,19.79
2018-09-26T14:00:57.309Z,19.74
2018-09-26T14:03:26.799Z,19.52
2018-09-26T14:05:56.511Z,19.70
2018-09-26T14:08:26.025Z,19.64
2018-09-26T14:10:55.496Z,19.80
2018-09-26T14:13:24.932Z,19.59
2018-09-26T14:15:54.404Z,19.82
2018-09-26T14:18:24.010Z,19.71
2018-09-26T14:20:53.639Z,19.90
2018-09-26T14:23:23.357Z,19.70
2018-09-26T14:25:52.922Z,19.61
2018-09-26T14:28:22.662Z,19.74
2018-09-26T14:30:52.275Z,19.72
2018-09-26T14:33:21.607Z,19.46
2018-09-26T14:35:51.071Z,19.46
2018-09-26T14:38:20.556Z,19.41
2018-09-26T14:40:50.186Z,19.63
2018-09-26T14:43:19.798Z,19.18
2018-09-26T14:45:49.329Z,19.05
2018-09-26T14:48:18.912Z,19.37
2018-09-26T14:50:48.410Z,19.60
2018-09-26T14:53:17.895Z,19.42
2018-09-26T14:55:47.417Z,19.06
2018-09-26T14:58:17.201Z,19.07
2018-09-26T15:00:46.731Z,19.31
2018-09-26T15:03:16.338Z,19.39
2018-09-26T15:05:47.982Z,19.31
2018-09-26T15:08:17.541Z,19.25
2018-09-26T15:10:47.003Z,19.53
2018-09-26T15:13:16.471Z,19.39
2018-09-26T15:15:46.116Z,18.96
2018-09-26T15:18:15.847Z,19.28
2018-09-26T15:20:45.498Z,19.47
2018-09-26T15:23:15.207Z,19.48
2018-09-26T15:25:44.610Z,19.30
2018-09-26T15:28:17.136Z,19.05
2018-09-26T15:30:46.825Z,19.40
2018-09-26T15:33:16.874Z,19.76
2018-09-26T15:35:46.455Z,19.58
2018-09-26T15:38:16.540Z,19.25
2018-09-26T15:40:46.274Z,19.12
2018-09-26T15:43:15.701Z,19.07
2018-09-26T15:45:45.250Z,19.13
2018-09-26T15:48:14.938Z,19.09
2018-09-26T15:50:44.600Z,18.97
2018-09-26T15:53:14.308Z,18.94
2018-09-26T15:55:43.897Z,18.90
2018-09-26T15:58:14.661Z,18.79
2018-09-26T16:00:44.549Z,18.78
2018-09-26T16:03:15.316Z,18.69
2018-09-26T16:05:44.916Z,18.79
2018-09-26T16:08:14.520Z,18.65
2018-09-26T16:10:43.995Z,18.73
2018-09-26T16:13:14.680Z,18.63
2018-09-26T16:15:44.455Z,18.64
2018-09-26T16:18:14.103Z,18.68
2018-09-26T16:20:43.674Z,18.81
2018-09-26T16:23:13.113Z,18.65
2018-09-26T16:25:42.687Z,18.79
2018-09-26T16:28:12.652Z,18.55
2018-09-26T16:30:42.057Z,18.45
2018-09-26T16:33:11.735Z,18.30
2018-09-26T16:35:41.212Z,18.21
2018-09-26T16:38:10.817Z,18.41
2018-09-26T16:40:40.524Z,18.38
2018-09-26T16:43:10.232Z,18.26
2018-09-26T16:45:39.941Z,18.12
2018-09-26T16:48:09.456Z,18.16
2018-09-26T16:50:38.880Z,17.97
2018-09-26T16:53:08.412Z,18.19
2018-09-26T16:55:38.063Z,17.90
2018-09-26T16:58:07.912Z,17.62
2018-09-26T17:00:37.583Z,17.71
2018-09-26T17:03:07.255Z,17.60
2018-09-26T17:05:37.312Z,17.18
2018-09-26T17:08:07.240Z,17.13
2018-09-26T17:10:37.135Z,17.00
2018-09-26T17:13:06.891Z,16.93
2018-09-26T17:15:36.353Z,16.93
2018-09-26T17:18:06.171Z,16.96
2018-09-26T17:20:35.684Z,17.18
2018-09-26T17:23:05.244Z,16.85
2018-09-26T17:25:34.774Z,17.08
2018-09-26T17:28:04.485Z,17.09
2018-09-26T17:30:34.040Z,17.01
2018-09-26T17:33:03.554Z,17.01
2018-09-26T17:35:33.202Z,16.91
2018-09-26T17:38:02.733Z,16.69
2018-09-26T17:40:32.248Z,16.83
2018-09-26T17:43:02.841Z,16.89
2018-09-26T17:45:32.807Z,16.60
2018-09-26T17:48:02.567Z,16.44
2018-09-26T17:50:32.284Z,16.30
2018-09-26T17:53:02.909Z,16.40
2018-09-26T17:55:32.528Z,16.33
2018-09-26T17:58:02.221Z,16.14
2018-09-26T18:00:32.442Z,15.87
2018-09-26T18:03:07.630Z,16.05
2018-09-26T18:05:43.143Z,16.30
2018-09-26T18:08:13.043Z,16.27
2018-09-26T18:10:46.502Z,16.18
2018-09-26T18:13:19.274Z,15.97
2018-09-26T18:15:48.961Z,15.57
2018-09-26T18:18:25.188Z,15.96
2018-09-26T18:20:56.675Z,16.13
2018-09-26T18:23:26.436Z,16.13
2018-09-26T18:25:56.108Z,16.10
2018-09-26T18:28:25.971Z,15.99
2018-09-26T18:30:55.682Z,15.93
2018-09-26T18:33:25.307Z,15.94
2018-09-26T18:35:54.864Z,15.66
2018-09-26T18:38:24.805Z,15.86
2018-09-26T18:40:54.515Z,15.83
2018-09-26T18:43:24.096Z,15.85
2018-09-26T18:45:53.728Z,15.68
2018-09-26T18:48:23.501Z,15.95
2018-09-26T18:50:53.140Z,15.81
2018-09-26T18:53:22.998Z,15.72
2018-09-26T18:55:52.770Z,15.83
2018-09-26T18:58:22.380Z,15.95
2018-09-26T19:00:53.352Z,15.76
2018-09-26T19:03:25.478Z,15.90
2018-09-26T19:05:56.111Z,15.96
2018-09-26T19:08:25.881Z,15.95
2018-09-26T19:10:55.529Z,15.89
2018-09-26T19:13:24.955Z,15.84
2018-09-26T19:15:54.864Z,15.88
2018-09-26T19:18:24.555Z,15.83
2018-09-26T19:20:54.371Z,15.60
2018-09-26T19:23:24.043Z,15.61
2018-09-26T19:25:54.607Z,15.67
2018-09-26T19:28:24.338Z,15.63
2018-09-26T19:30:54.068Z,15.63
2018-09-26T19:33:23.713Z,15.48
2018-09-26T19:35:53.316Z,15.37
2018-09-26T19:38:23.175Z,15.48
2018-09-26T19:40:53.063Z,15.28
2018-09-26T19:43:22.605Z,15.08
2018-09-26T19:45:52.408Z,15.10
2018-09-26T19:48:22.111Z,15.29
2018-09-26T19:50:52.874Z,15.25
2018-09-26T19:53:22.536Z,15.11
2018-09-26T19:55:54.543Z,15.11
2018-09-26T19:58:24.399Z,15.09
2018-09-26T20:00:54.216Z,15.20
2018-09-26T20:03:23.927Z,15.29
2018-09-26T20:05:53.649Z,15.20
2018-09-26T20:08:23.176Z,15.30
2018-09-26T20:10:52.809Z,15.26
2018-09-26T20:13:22.762Z,13.81
2018-09-26T20:15:52.240Z,15.35
2018-09-26T20:18:21.806Z,15.20
2018-09-26T20:20:51.340Z,14.92
2018-09-26T20:23:21.118Z,14.79
2018-09-26T20:25:50.831Z,14.90
2018-09-26T20:28:20.607Z,14.99
2018-09-26T20:30:50.239Z,14.91
2018-09-26T20:33:19.824Z,14.94
2018-09-26T20:35:49.633Z,15.02
2018-09-26T20:38:19.547Z,14.85
2018-09-26T20:40:49.169Z,14.91
2018-09-26T20:43:18.769Z,14.95
2018-09-26T20:45:48.377Z,14.79
2018-09-26T20:48:18.180Z,14.89
2018-09-26T20:50:47.693Z,14.47
2018-09-26T20:53:17.233Z,14.60
2018-09-26T20:55:46.677Z,14.65
2018-09-26T20:58:21.233Z,14.65
2018-09-26T21:00:51.023Z,14.71
2018-09-26T21:03:20.733Z,14.68
2018-09-26T21:05:50.656Z,14.78
2018-09-26T21:08:20.325Z,14.73
2018-09-26T21:10:50.271Z,14.66
2018-09-26T21:13:20.080Z,14.64
2018-09-26T21:15:49.997Z,14.62
2018-09-26T21:18:19.704Z,14.60
2018-09-26T21:20:49.357Z,14.57
2018-09-26T21:23:18.917Z,14.49
2018-09-26T21:25:48.526Z,14.17
2018-09-26T21:28:18.443Z,14.00
2018-09-26T21:30:48.053Z,13.80
2018-09-26T21:33:17.856Z,13.82
2018-09-26T21:35:47.621Z,13.84
2018-09-26T21:38:17.269Z,13.85
2018-09-26T21:40:47.194Z,13.70
2018-09-26T21:43:16.898Z,13.68
2018-09-26T21:45:46.608Z,13.85
2018-09-26T21:48:16.314Z,13.80
2018-09-26T21:50:47.262Z,13.65
2018-09-26T21:53:16.876Z,13.68
2018-09-26T21:55:46.697Z,13.75
2018-09-26T21:58:16.396Z,13.73
2018-09-26T22:00:51.208Z,13.45
2018-09-26T22:03:20.932Z,13.33
2018-09-26T22:05:50.486Z,13.25
2018-09-26T22:08:20.441Z,13.21
2018-09-26T22:10:49.958Z,13.37
2018-09-26T22:13:19.756Z,13.47
2018-09-26T22:15:49.456Z,13.46
2018-09-26T22:18:19.212Z,13.61
2018-09-26T22:20:49.083Z,13.42
2018-09-26T22:23:18.841Z,13.47
2018-09-26T22:25:48.660Z,13.47
2018-09-26T22:28:18.517Z,13.06
2018-09-26T22:30:49.709Z,12.79
2018-09-26T22:33:19.192Z,12.91
2018-09-26T22:35:48.981Z,13.09
2018-09-26T22:38:18.609Z,13.13
2018-09-26T22:40:48.068Z,13.21
2018-09-26T22:43:17.515Z,13.06
2018-09-26T22:45:47.100Z,13.06
2018-09-26T22:48:17.628Z,13.12
2018-09-26T22:50:47.061Z,13.12
2018-09-26T22:53:16.501Z,12.95
2018-09-26T22:55:46.141Z,12.84
2018-09-26T22:58:16.125Z,12.95
2018-09-26T23:00:46.033Z,13.01
2018-09-26T23:03:15.778Z,13.00
2018-09-26T23:05:45.408Z,13.05
2018-09-26T23:08:15.002Z,12.83
2018-09-26T23:10:44.708Z,12.82
2018-09-26T23:13:14.520Z,12.96
2018-09-26T23:15:44.140Z,12.80
2018-09-26T23:18:13.969Z,12.87
2018-09-26T23:20:43.639Z,12.86
2018-09-26T23:23:13.369Z,12.76
2018-09-26T23:25:43.288Z,12.77
2018-09-26T23:28:13.056Z,12.94
2018-09-26T23:30:42.741Z,12.47
2018-09-26T23:33:12.156Z,12.58
2018-09-26T23:35:41.952Z,12.69
2018-09-26T23:38:11.498Z,12.80
2018-09-26T23:40:40.934Z,12.74
2018-09-26T23:43:10.341Z,12.58
2018-09-26T23:45:40.107Z,12.62
2018-09-26T23:48:09.719Z,12.63
2018-09-26T23:50:39.186Z,12.67
2018-09-26T23:53:08.831Z,12.66
2018-09-26T23:55:38.278Z,12.62
2018-09-26T23:58:07.689Z,12.58
